Données. Loja

Actualisé: vendredi, 31 octobre 2014 09:32 (heure officielle)
Ind. climatologique: 5582A -  Altitude (m): 585
Latitude37° 9' 41'' N - Longitude4° 9' 10'' O -  PositionVoir localisation
MunicipioLoja (Granada) - Ver predicción
Registros - de
Fecha y hora oficial

 

Temp. (°C)

 

Vit. vent (km/h)

 

Dir. vent

 

Rafale (km/h)

 

Dir. rafale

 

Prec. (mm)

 

Pression (hPa)

 

Tend. (hPa)

 

Humidité (%)

 

31/10/2014 09:00 11.6 3 4-EstEst 24 4-EstEst 0.0 953.8 1.1 57
31/10/2014 08:00 11.0 6 5-Sud-EstSud-Est 25 4-EstEst 0.0 953.2 0.6 58
31/10/2014 07:00 10.5 6 4-EstEst 23 4-EstEst 0.0 952.8 0.0 61
31/10/2014 06:00 12.4 5 4-EstEst 23 4-EstEst 0.0 952.7 -0.4 54
31/10/2014 05:00 12.3 5 4-EstEst 19 4-EstEst 0.0 952.6 -0.2 54
31/10/2014 04:00 11.9 0 1-CalmeCalme 18 4-EstEst 0.0 952.8 -0.3 55
31/10/2014 03:00 11.8 0 1-CalmeCalme 23 4-EstEst 0.0 953.1 0.0 58
31/10/2014 02:00 12.9 2 3-Nord-EstNord-Est 24 2-NordNord 0.0 952.8 -0.5 51
31/10/2014 01:00 14.0 6 4-EstEst 22 5-Sud-EstSud-Est 0.0 953.1 0.1 48
31/10/2014 00:00 15.3 3 4-EstEst 16 5-Sud-EstSud-Est 0.0 953.1 0.7 45
30/10/2014 23:00 15.8 3 5-Sud-EstSud-Est 8 5-Sud-EstSud-Est 0.0 953.3 1.4 45
30/10/2014 22:00 16.9 3 5-Sud-EstSud-Est 14 5-Sud-EstSud-Est 0.0 953.0 1.8 41
30/10/2014 21:00 17.5 2 6-SudSud 9 4-EstEst 0.0 952.4 1.6 39
30/10/2014 20:00 17.7 0 1-CalmeCalme 9 8-OuestOuest 0.0 951.9 1.3 37
30/10/2014 19:00 18.8 0 1-CalmeCalme 8 2-NordNord 0.0 951.2 0.7 32
30/10/2014 18:00 20.5 3 6-SudSud 9 7-Sud-OuestSud-Ouest 0.0 950.8 0.0 30
30/10/2014 17:00 22.9 2 6-SudSud 16 4-EstEst 0.0 950.6 -0.6 27
30/10/2014 16:00 24.4 4 4-EstEst 20 4-EstEst 0.0 950.5 -1.4 25
30/10/2014 15:00 25.5 0 1-CalmeCalme 12 5-Sud-EstSud-Est 0.0 950.8 -1.7 24
30/10/2014 14:00 25.4 2 6-SudSud 10 6-SudSud 0.0 951.2 -1.3 27
30/10/2014 13:00 23.7 3 5-Sud-EstSud-Est 17 5-Sud-EstSud-Est 0.0 951.9 -0.5 32
30/10/2014 12:00 20.4 3 5-Sud-EstSud-Est 18 5-Sud-EstSud-Est 0.0 952.5 0.2 38
30/10/2014 11:00 17.0 3 4-EstEst 22 4-EstEst 0.0 952.5 1.1 50
30/10/2014 10:00 13.6 6 4-EstEst 27 4-EstEst 0.0 952.4 1.4 59
First Page First Page First Page Last Page
Lineas por página
Página   de  
Partager:  
En esta página podrá acceder, en forma gráfica y en tabla, a las observaciones horarias de las últimas 24 horas, así como a los valores extremos y acumulados desde las 00 horas del día hasta la hora de actualización indicada, obtenidos en la red de estaciones de AEMET. También podrá acceder a los resúmenes diarios de estas estaciones en los últimos 7 días.

En el mapa aparecen estaciones con valor númerico y otras representadas por un punto. En las primeras, al pasar el ratón, aparece un desplegable con la información completa de la estación. Las estaciones representadas por un punto son estaciones de la red climatológica, con transmisión de datos superior a la hora, por lo que al seleccionarlas pueden no aparecer los últimos datos.

Los datos presentados han sido únicamente sometidos a controles automáticos de calidad en tiempo real, por lo que no puede garantizarse la ausencia de errores.
Toute utilisation et reproduction de l'information est autorisé sous réserve de mentionner AEMETen tant qu'auteur de celle-ci